Time;durP1;ratioP1;P1;durP2;ratioP2;P2;SDS_P1;SDS_P2;PMS_P1;PMS_P2;Temp;Humidity;BMP_temperature;BMP_pressure;BME280_temperature;BME280_humidity;BME280_pressure;Samples;Min_cycle;Max_cycle;Signal;HPM_P1;HPM_P2
2021/05/16 00:00:14;;;;;;;9.63;8.73;;;;;;;;;;5091667;28;20127;-63
2021/05/16 00:03:00;;;;;;;8.30;7.30;;;;;;;;;;5091794;28;20486;-63
2021/05/16 00:05:46;;;;;;;7.43;6.72;;;;;;;;;;5091928;28;20048;-63
2021/05/16 00:08:31;;;;;;;9.73;8.65;;;;;;;;;;5065453;28;20063;-63
2021/05/16 00:11:21;;;;;;;9.95;8.95;;;;;;;;;;5071332;28;20213;-63
2021/05/16 00:14:09;;;;;;;10.40;9.40;;;;;;;;;;5078165;28;20047;-63
2021/05/16 00:16:55;;;;;;;12.63;10.60;;;;;;;;;;5091585;28;20137;-63
2021/05/16 00:19:40;;;;;;;12.30;11.10;;;;;;;;;;5091615;28;20044;-63
2021/05/16 00:22:25;;;;;;;11.70;10.50;;;;;;;;;;5091690;28;20120;-63
2021/05/16 00:25:11;;;;;;;12.23;11.02;;;;;;;;;;5091336;28;20049;-63
2021/05/16 00:27:57;;;;;;;12.40;11.20;;;;;;;;;;5091720;28;20072;-63
2021/05/16 00:30:43;;;;;;;12.65;11.55;;;;;;;;;;5091377;28;20078;-63
2021/05/16 00:33:28;;;;;;;14.07;12.77;;;;;;;;;;5091094;28;20071;-63
2021/05/16 00:36:13;;;;;;;13.43;12.13;;;;;;;;;;5076369;28;20051;-63
2021/05/16 00:38:58;;;;;;;13.52;12.18;;;;;;;;;;5076209;28;20490;-63
2021/05/16 00:41:44;;;;;;;13.48;12.18;;;;;;;;;;5091284;28;20098;-63
2021/05/16 00:44:29;;;;;;;13.63;12.40;;;;;;;;;;5091239;28;20048;-63
2021/05/16 00:47:14;;;;;;;13.85;12.45;;;;;;;;;;5094901;28;20040;-63
2021/05/16 00:50:01;;;;;;;14.48;12.98;;;;;;;;;;5094697;28;20040;-63
2021/05/16 00:52:47;;;;;;;14.10;12.80;;;;;;;;;;5079692;28;20051;-63
2021/05/16 00:55:33;;;;;;;13.65;12.35;;;;;;;;;;5074726;28;20051;-63
2021/05/16 00:58:19;;;;;;;14.50;13.10;;;;;;;;;;5074391;28;20534;-63
2021/05/16 01:01:08;;;;;;;13.73;12.32;;;;;;;;;;5074489;28;20044;-63
2021/05/16 01:03:55;;;;;;;14.05;12.70;;;;;;;;;;5065790;28;20490;-63
2021/05/16 01:06:40;;;;;;;14.95;13.52;;;;;;;;;;5094580;28;20044;-63
2021/05/16 01:09:27;;;;;;;14.20;12.88;;;;;;;;;;5079322;28;20048;-63
2021/05/16 01:12:13;;;;;;;14.18;12.77;;;;;;;;;;5094618;28;20039;-63
2021/05/16 01:15:03;;;;;;;15.32;13.52;;;;;;;;;;5079162;28;20131;-63
2021/05/16 01:17:49;;;;;;;16.38;14.77;;;;;;;;;;5066118;28;20048;-63
2021/05/16 01:20:35;;;;;;;18.33;15.32;;;;;;;;;;5094339;28;20048;-63
2021/05/16 01:23:25;;;;;;;19.35;15.77;;;;;;;;;;5094330;28;20074;-63
2021/05/16 01:26:16;;;;;;;19.65;17.70;;;;;;;;;;5078832;28;20051;-63
2021/05/16 01:29:01;;;;;;;19.10;17.13;;;;;;;;;;5094367;28;20146;-63
2021/05/16 01:31:47;;;;;;;19.95;17.95;;;;;;;;;;5094116;28;20044;-63
2021/05/16 01:34:32;;;;;;;20.95;18.75;;;;;;;;;;5093867;28;20726;-63
2021/05/16 01:37:18;;;;;;;20.30;18.20;;;;;;;;;;5094241;28;20118;-63
2021/05/16 01:40:04;;;;;;;21.90;19.70;;;;;;;;;;5093938;28;20047;-63
2021/05/16 01:42:53;;;;;;;22.52;20.33;;;;;;;;;;5079038;28;20059;-63
2021/05/16 01:45:38;;;;;;;23.65;21.17;;;;;;;;;;5093776;28;20478;-63
2021/05/16 01:48:23;;;;;;;24.40;21.80;;;;;;;;;;5093805;28;20097;-63
2021/05/16 01:51:09;;;;;;;25.17;22.48;;;;;;;;;;5078350;28;20040;-63
2021/05/16 01:53:54;;;;;;;26.17;23.05;;;;;;;;;;5093739;28;20548;-63
2021/05/16 01:56:40;;;;;;;27.92;24.92;;;;;;;;;;5092873;28;20044;-63
2021/05/16 01:59:25;;;;;;;26.75;24.00;;;;;;;;;;5093635;28;20113;-63
2021/05/16 02:02:11;;;;;;;27.73;24.80;;;;;;;;;;5093727;28;20055;-63
2021/05/16 02:04:57;;;;;;;26.98;23.95;;;;;;;;;;5064580;28;20510;-63
2021/05/16 02:07:43;;;;;;;28.20;25.15;;;;;;;;;;5058238;28;20131;-63
2021/05/16 02:10:28;;;;;;;28.63;25.60;;;;;;;;;;5043983;28;20490;-64
2021/05/16 02:13:18;;;;;;;27.25;24.33;;;;;;;;;;5057883;28;20040;-63
2021/05/16 02:16:13;;;;;;;27.48;24.13;;;;;;;;;;5062672;28;20048;-63
2021/05/16 02:19:02;;;;;;;28.20;24.77;;;;;;;;;;5078221;28;20044;-64
2021/05/16 02:21:51;;;;;;;31.55;26.25;;;;;;;;;;5077787;28;20040;-64
2021/05/16 02:24:37;;;;;;;31.38;25.38;;;;;;;;;;5077973;28;20185;-63
2021/05/16 02:27:26;;;;;;;29.25;26.23;;;;;;;;;;5077617;28;20048;-63
2021/05/16 02:30:13;;;;;;;29.42;25.77;;;;;;;;;;5077650;28;20507;-63
2021/05/16 02:33:00;;;;;;;30.40;25.88;;;;;;;;;;5093202;28;20044;-63
2021/05/16 02:35:46;;;;;;;29.30;25.40;;;;;;;;;;5077475;28;20055;-63
2021/05/16 02:38:31;;;;;;;30.13;24.40;;;;;;;;;;5091700;28;20177;-64
2021/05/16 02:41:16;;;;;;;27.00;24.10;;;;;;;;;;5091663;28;20044;-64
2021/05/16 02:44:02;;;;;;;28.30;23.92;;;;;;;;;;5076846;28;20048;-64
2021/05/16 02:46:48;;;;;;;27.80;24.50;;;;;;;;;;5077138;28;20051;-64
2021/05/16 02:49:34;;;;;;;26.83;23.33;;;;;;;;;;5072360;28;20045;-64
2021/05/16 02:52:19;;;;;;;29.27;24.00;;;;;;;;;;5072466;28;20067;-64
2021/05/16 02:55:06;;;;;;;31.95;24.20;;;;;;;;;;5057127;28;20058;-64
2021/05/16 02:57:51;;;;;;;27.50;23.73;;;;;;;;;;5062950;28;20044;-64
2021/05/16 03:00:39;;;;;;;29.13;23.52;;;;;;;;;;5077171;28;20052;-64
2021/05/16 03:03:25;;;;;;;27.73;23.13;;;;;;;;;;5077206;28;20051;-64
2021/05/16 03:06:18;;;;;;;29.70;22.95;;;;;;;;;;5092621;28;20090;-64
2021/05/16 03:09:04;;;;;;;28.30;23.77;;;;;;;;;;5092163;28;20072;-64
2021/05/16 03:11:51;;;;;;;27.25;22.98;;;;;;;;;;5077148;28;20052;-64
2021/05/16 03:14:36;;;;;;;26.60;22.17;;;;;;;;;;5077270;28;20044;-64
2021/05/16 03:17:22;;;;;;;30.95;23.20;;;;;;;;;;5092305;28;20039;-64
2021/05/16 03:20:08;;;;;;;28.30;22.23;;;;;;;;;;5091746;28;20048;-64
2021/05/16 03:22:55;;;;;;;27.48;22.52;;;;;;;;;;5063315;28;20051;-64
2021/05/16 03:25:41;;;;;;;28.85;23.17;;;;;;;;;;5092313;28;20060;-64
2021/05/16 03:28:26;;;;;;;31.50;23.55;;;;;;;;;;5076706;28;20185;-64
2021/05/16 03:31:11;;;;;;;33.38;23.52;;;;;;;;;;5092078;28;20051;-64
2021/05/16 03:33:57;;;;;;;34.67;24.08;;;;;;;;;;5092121;28;20093;-64
2021/05/16 03:36:42;;;;;;;39.45;24.77;;;;;;;;;;5091940;28;20044;-64
2021/05/16 03:39:28;;;;;;;34.63;22.75;;;;;;;;;;5076454;28;20044;-64
2021/05/16 03:42:13;;;;;;;33.42;24.10;;;;;;;;;;5092126;28;20052;-64
2021/05/16 03:44:59;;;;;;;33.13;23.10;;;;;;;;;;5091954;28;20048;-64
2021/05/16 03:47:44;;;;;;;32.17;23.92;;;;;;;;;;5091894;28;20426;-64
2021/05/16 03:50:30;;;;;;;35.17;24.95;;;;;;;;;;5091652;28;20127;-64
2021/05/16 03:53:15;;;;;;;39.75;25.63;;;;;;;;;;5091999;28;20509;-64
2021/05/16 03:56:01;;;;;;;39.10;25.40;;;;;;;;;;5092155;28;20047;-65
2021/05/16 03:58:46;;;;;;;40.63;26.75;;;;;;;;;;5092024;28;20052;-64
2021/05/16 04:01:32;;;;;;;41.47;26.23;;;;;;;;;;5091344;28;20073;-64
2021/05/16 04:04:17;;;;;;;50.47;27.35;;;;;;;;;;5091880;28;20044;-64
2021/05/16 04:07:03;;;;;;;42.50;25.80;;;;;;;;;;5091820;28;20066;-64
2021/05/16 04:09:48;;;;;;;43.53;26.35;;;;;;;;;;5091238;28;20101;-64
2021/05/16 04:12:34;;;;;;;42.80;26.98;;;;;;;;;;5091981;28;20157;-64
2021/05/16 04:15:19;;;;;;;47.35;27.40;;;;;;;;;;5091761;28;20044;-64
2021/05/16 04:18:04;;;;;;;40.95;25.08;;;;;;;;;;5092095;28;20055;-62
2021/05/16 04:20:51;;;;;;;39.03;26.30;;;;;;;;;;5093050;28;20117;-65
2021/05/16 04:23:37;;;;;;;38.97;25.00;;;;;;;;;;5095623;28;20440;-62
2021/05/16 04:26:23;;;;;;;41.80;26.17;;;;;;;;;;5095545;28;20083;-62
2021/05/16 04:29:08;;;;;;;40.30;25.52;;;;;;;;;;5095647;28;20048;-63
2021/05/16 04:31:54;;;;;;;38.83;24.00;;;;;;;;;;5095312;28;20059;-64
2021/05/16 04:34:39;;;;;;;39.75;25.38;;;;;;;;;;5095278;28;20123;-62
2021/05/16 04:37:25;;;;;;;35.30;24.38;;;;;;;;;;5095240;28;20048;-62
2021/05/16 04:40:10;;;;;;;37.35;25.17;;;;;;;;;;5079848;28;20113;-62
2021/05/16 04:42:56;;;;;;;32.85;24.38;;;;;;;;;;5094961;28;20040;-63
2021/05/16 04:45:42;;;;;;;34.38;23.98;;;;;;;;;;5095081;28;20047;-64
2021/05/16 04:48:27;;;;;;;34.08;23.95;;;;;;;;;;5095120;28;20422;-62
2021/05/16 04:51:13;;;;;;;36.88;24.17;;;;;;;;;;5094664;28;20406;-64
2021/05/16 04:53:58;;;;;;;34.78;23.45;;;;;;;;;;5094811;28;20044;-65
2021/05/16 04:56:43;;;;;;;36.45;24.45;;;;;;;;;;5094962;28;20048;-62
2021/05/16 04:59:29;;;;;;;39.30;24.60;;;;;;;;;;5094683;28;20058;-63
2021/05/16 05:02:14;;;;;;;30.00;22.90;;;;;;;;;;5094600;28;20497;-62
2021/05/16 05:05:00;;;;;;;30.15;22.42;;;;;;;;;;5094951;28;20130;-63
2021/05/16 05:07:45;;;;;;;34.42;22.80;;;;;;;;;;5094806;28;20085;-62
2021/05/16 05:10:30;;;;;;;34.92;23.65;;;;;;;;;;5094667;28;20489;-62
2021/05/16 05:13:16;;;;;;;36.17;24.45;;;;;;;;;;5094510;28;20048;-62
2021/05/16 05:16:01;;;;;;;34.22;24.38;;;;;;;;;;5094627;28;20565;-62
2021/05/16 05:18:46;;;;;;;32.90;23.92;;;;;;;;;;5094422;28;20469;-62
2021/05/16 05:21:32;;;;;;;35.03;24.30;;;;;;;;;;5094422;28;20048;-62
2021/05/16 05:24:17;;;;;;;38.80;25.55;;;;;;;;;;5094160;28;20044;-62
2021/05/16 05:27:03;;;;;;;32.75;23.25;;;;;;;;;;5079160;28;20051;-62
2021/05/16 05:29:48;;;;;;;38.50;24.88;;;;;;;;;;5094188;28;20040;-62
2021/05/16 05:32:33;;;;;;;32.10;23.08;;;;;;;;;;5092924;28;20058;-65
2021/05/16 05:35:19;;;;;;;32.17;22.63;;;;;;;;;;5094183;28;20077;-62
2021/05/16 05:38:04;;;;;;;31.25;23.33;;;;;;;;;;5094065;28;20082;-62
2021/05/16 05:40:50;;;;;;;33.47;22.10;;;;;;;;;;5093777;28;20067;-63
2021/05/16 05:43:35;;;;;;;33.92;21.48;;;;;;;;;;5093923;28;20440;-62
2021/05/16 05:46:21;;;;;;;36.45;22.67;;;;;;;;;;5078665;28;20165;-61
2021/05/16 05:49:06;;;;;;;32.05;22.80;;;;;;;;;;5101939;22;20045;-62
2021/05/16 05:51:52;;;;;;;30.88;21.27;;;;;;;;;;5053547;28;20048;-61
2021/05/16 05:54:37;;;;;;;30.42;20.65;;;;;;;;;;5053599;28;20049;-61
2021/05/16 05:57:22;;;;;;;29.08;21.00;;;;;;;;;;5055030;28;20115;-62
2021/05/16 06:00:09;;;;;;;34.17;22.67;;;;;;;;;;5073273;28;20179;-61
2021/05/16 06:02:55;;;;;;;27.52;21.02;;;;;;;;;;5073383;28;20504;-61
2021/05/16 06:05:40;;;;;;;30.45;21.00;;;;;;;;;;5040447;28;20056;-62
2021/05/16 06:08:25;;;;;;;29.42;20.40;;;;;;;;;;5073319;28;20072;-61
2021/05/16 06:11:11;;;;;;;23.83;19.23;;;;;;;;;;5073116;28;20505;-62
2021/05/16 06:13:56;;;;;;;28.55;19.55;;;;;;;;;;5073230;28;20078;-62
2021/05/16 06:16:41;;;;;;;30.50;19.65;;;;;;;;;;5064686;28;20396;-61
2021/05/16 06:19:27;;;;;;;26.05;20.17;;;;;;;;;;5052922;28;20052;-62
2021/05/16 06:22:13;;;;;;;28.10;19.63;;;;;;;;;;5053183;28;20392;-61
2021/05/16 06:24:59;;;;;;;26.20;20.65;;;;;;;;;;5052909;28;20526;-62
2021/05/16 06:27:44;;;;;;;25.50;19.50;;;;;;;;;;5066755;28;20060;-62
2021/05/16 06:30:29;;;;;;;31.35;21.50;;;;;;;;;;5072536;28;20474;-62
2021/05/16 06:33:15;;;;;;;31.75;21.75;;;;;;;;;;5072939;28;20128;-62
2021/05/16 06:36:00;;;;;;;33.90;20.75;;;;;;;;;;5072886;28;20052;-62
2021/05/16 06:38:45;;;;;;;30.67;20.10;;;;;;;;;;5071210;28;20049;-62
2021/05/16 06:41:31;;;;;;;27.27;19.23;;;;;;;;;;5072446;28;20399;-62
2021/05/16 06:44:16;;;;;;;29.00;17.50;;;;;;;;;;5057468;28;20056;-62
2021/05/16 06:47:02;;;;;;;25.63;16.45;;;;;;;;;;5071445;28;20041;-62
2021/05/16 06:49:52;;;;;;;22.73;14.98;;;;;;;;;;5052526;28;20072;-62
2021/05/16 06:52:38;;;;;;;22.77;14.45;;;;;;;;;;5055439;28;20071;-62
2021/05/16 06:55:23;;;;;;;19.23;14.30;;;;;;;;;;5062203;28;20073;-62
2021/05/16 06:58:09;;;;;;;22.35;13.80;;;;;;;;;;5061924;28;20040;-63
2021/05/16 07:00:54;;;;;;;23.58;13.95;;;;;;;;;;5062802;28;20040;-63
2021/05/16 07:03:41;;;;;;;21.23;13.25;;;;;;;;;;5058853;28;20036;-63
2021/05/16 07:06:26;;;;;;;25.67;13.73;;;;;;;;;;5060596;28;20102;-63
2021/05/16 07:09:12;;;;;;;20.55;12.90;;;;;;;;;;5056892;28;20122;-62
2021/05/16 07:11:57;;;;;;;15.65;10.35;;;;;;;;;;5052095;28;20669;-63
2021/05/16 07:14:43;;;;;;;19.58;11.32;;;;;;;;;;5052308;28;20048;-62
2021/05/16 07:17:30;;;;;;;20.63;12.13;;;;;;;;;;5052200;28;20148;-63
2021/05/16 07:20:15;;;;;;;19.40;13.43;;;;;;;;;;5069336;28;20052;-63
2021/05/16 07:23:01;;;;;;;19.63;12.25;;;;;;;;;;5072105;28;20050;-61
2021/05/16 07:25:47;;;;;;;19.35;11.50;;;;;;;;;;5072315;28;20072;-63
2021/05/16 07:28:32;;;;;;;19.95;12.02;;;;;;;;;;5070018;28;20576;-62
2021/05/16 07:31:18;;;;;;;15.60;11.02;;;;;;;;;;5052945;28;20053;-63
2021/05/16 07:34:03;;;;;;;20.20;10.82;;;;;;;;;;5051849;28;20053;-63
2021/05/16 07:36:49;;;;;;;17.05;9.05;;;;;;;;;;5052206;28;20506;-63
2021/05/16 07:39:34;;;;;;;18.70;11.00;;;;;;;;;;5059112;28;20049;-62
2021/05/16 07:42:19;;;;;;;18.35;9.60;;;;;;;;;;5072086;28;20059;-63
2021/05/16 07:45:06;;;;;;;17.95;9.13;;;;;;;;;;5046756;28;20561;-63
2021/05/16 07:47:52;;;;;;;16.73;8.93;;;;;;;;;;5039807;28;20067;-62
2021/05/16 07:50:37;;;;;;;18.75;7.35;;;;;;;;;;5058680;28;20082;-63
2021/05/16 07:53:23;;;;;;;18.65;8.50;;;;;;;;;;5072352;28;20048;-63
2021/05/16 07:56:10;;;;;;;19.13;7.18;;;;;;;;;;5074115;28;20179;-63
2021/05/16 07:58:55;;;;;;;15.27;7.60;;;;;;;;;;5075899;28;20067;-63
2021/05/16 08:01:41;;;;;;;14.75;7.60;;;;;;;;;;5056267;28;20434;-62
2021/05/16 08:04:26;;;;;;;17.23;8.48;;;;;;;;;;5055835;28;20052;-63
2021/05/16 08:07:11;;;;;;;14.18;7.97;;;;;;;;;;5055616;28;20491;-63
2021/05/16 08:09:57;;;;;;;15.68;7.07;;;;;;;;;;5057105;28;20490;-62
2021/05/16 08:12:42;;;;;;;12.25;6.60;;;;;;;;;;5075768;28;20529;-64
2021/05/16 08:15:27;;;;;;;11.05;6.55;;;;;;;;;;5075378;28;20052;-63
2021/05/16 08:18:13;;;;;;;15.32;8.18;;;;;;;;;;5075268;28;20049;-63
2021/05/16 08:20:58;;;;;;;18.80;7.70;;;;;;;;;;5067554;28;20048;-63
2021/05/16 08:23:43;;;;;;;17.30;8.02;;;;;;;;;;5040467;28;20407;-63
2021/05/16 08:26:28;;;;;;;25.77;7.05;;;;;;;;;;5055233;28;20132;-62
2021/05/16 08:29:14;;;;;;;17.00;7.50;;;;;;;;;;5063227;28;20044;-62
2021/05/16 08:31:59;;;;;;;20.35;9.25;;;;;;;;;;5063481;28;20041;-62
2021/05/16 08:34:45;;;;;;;8.25;5.28;;;;;;;;;;5061324;28;20083;-61
2021/05/16 08:37:30;;;;;;;10.55;5.22;;;;;;;;;;5047710;28;20041;-62
2021/05/16 08:40:15;;;;;;;13.02;7.18;;;;;;;;;;5041358;28;20044;-62
2021/05/16 08:43:01;;;;;;;10.95;6.88;;;;;;;;;;5056104;28;20128;-62
2021/05/16 08:45:46;;;;;;;18.17;7.75;;;;;;;;;;5055113;28;20053;-62
2021/05/16 08:48:32;;;;;;;12.60;7.85;;;;;;;;;;5039644;28;20503;-62
2021/05/16 08:51:18;;;;;;;16.45;8.63;;;;;;;;;;5026996;28;20116;-61
2021/05/16 08:54:03;;;;;;;11.38;6.72;;;;;;;;;;5075031;28;20041;-61
2021/05/16 08:56:52;;;;;;;11.02;5.95;;;;;;;;;;5074729;28;20045;-62
2021/05/16 08:59:39;;;;;;;10.27;5.40;;;;;;;;;;5074428;28;20045;-63
2021/05/16 09:02:25;;;;;;;8.20;6.03;;;;;;;;;;5051704;28;20084;-63
2021/05/16 09:05:18;;;;;;;10.07;6.10;;;;;;;;;;5054682;28;20060;-61
2021/05/16 09:08:07;;;;;;;10.57;5.97;;;;;;;;;;5039505;28;20049;-63
2021/05/16 09:10:55;;;;;;;9.68;5.70;;;;;;;;;;5054647;28;20045;-62
2021/05/16 09:13:44;;;;;;;7.72;5.05;;;;;;;;;;5069899;28;20048;-62
2021/05/16 09:16:29;;;;;;;12.82;6.40;;;;;;;;;;5074215;28;20044;-62
2021/05/16 09:19:15;;;;;;;8.52;4.85;;;;;;;;;;5074531;28;20495;-61
2021/05/16 09:22:00;;;;;;;6.68;3.92;;;;;;;;;;5074312;28;20041;-61
2021/05/16 09:24:45;;;;;;;7.30;3.95;;;;;;;;;;5034203;28;20061;-62
2021/05/16 09:27:32;;;;;;;4.45;2.97;;;;;;;;;;5019573;28;20419;-62
2021/05/16 09:30:20;;;;;;;4.72;2.58;;;;;;;;;;5034275;28;20080;-62
2021/05/16 09:33:13;;;;;;;4.97;2.83;;;;;;;;;;5044197;28;20056;-63
2021/05/16 09:35:59;;;;;;;4.43;3.05;;;;;;;;;;5074887;28;20048;-62
2021/05/16 09:38:44;;;;;;;4.50;2.67;;;;;;;;;;5059363;28;20160;-62
2021/05/16 09:41:29;;;;;;;4.70;2.42;;;;;;;;;;5059532;28;20049;-62
2021/05/16 09:44:28;;;;;;;2.42;1.85;;;;;;;;;;5063762;28;20053;-62
2021/05/16 09:47:30;;;;;;;2.90;0.70;;;;;;;;;;5055743;28;20111;-62
2021/05/16 09:50:15;;;;;;;2.35;0.70;;;;;;;;;;5054515;28;20131;-62
2021/05/16 09:53:03;;;;;;;2.08;0.90;;;;;;;;;;5039826;28;20095;-62
2021/05/16 09:55:48;;;;;;;1.75;0.90;;;;;;;;;;5034215;28;20080;-62
2021/05/16 09:58:34;;;;;;;2.30;1.00;;;;;;;;;;5033719;28;20107;-62
2021/05/16 10:01:19;;;;;;;6.30;1.15;;;;;;;;;;5018559;28;20128;-61
2021/05/16 10:04:05;;;;;;;1.95;0.98;;;;;;;;;;5038377;28;20107;-61
2021/05/16 10:06:50;;;;;;;5.20;1.33;;;;;;;;;;5053360;28;20503;-61
2021/05/16 10:09:35;;;;;;;2.38;0.98;;;;;;;;;;5038175;28;20037;-62
2021/05/16 10:12:22;;;;;;;2.90;0.95;;;;;;;;;;5038172;28;20045;-61
2021/05/16 10:15:12;;;;;;;1.95;1.35;;;;;;;;;;5062145;28;20491;-62
2021/05/16 10:17:57;;;;;;;2.58;0.98;;;;;;;;;;5057474;28;20127;-62
2021/05/16 10:20:43;;;;;;;2.70;1.15;;;;;;;;;;5058031;28;20502;-62
2021/05/16 10:23:33;;;;;;;3.60;1.08;;;;;;;;;;5073377;28;20055;-62
2021/05/16 10:26:21;;;;;;;1.50;0.70;;;;;;;;;;5057008;28;20080;-62
2021/05/16 10:29:25;;;;;;;3.03;0.88;;;;;;;;;;5053041;28;20056;-61
2021/05/16 10:32:20;;;;;;;3.65;0.93;;;;;;;;;;5052853;28;20041;-61
2021/05/16 10:35:08;;;;;;;2.10;0.73;;;;;;;;;;5055664;28;20112;-61
2021/05/16 10:37:57;;;;;;;1.92;0.75;;;;;;;;;;5072852;28;20041;-61
2021/05/16 10:40:43;;;;;;;2.92;1.00;;;;;;;;;;5072353;28;20408;-63
2021/05/16 10:43:29;;;;;;;2.95;1.20;;;;;;;;;;5072661;28;20052;-62
2021/05/16 10:46:32;;;;;;;5.70;1.50;;;;;;;;;;5062841;28;20045;-62
2021/05/16 10:49:21;;;;;;;6.43;2.03;;;;;;;;;;5052414;28;20049;-62
2021/05/16 10:52:26;;;;;;;3.00;1.92;;;;;;;;;;5052429;28;20037;-61
2021/05/16 10:55:25;;;;;;;6.03;3.20;;;;;;;;;;5052488;28;20045;-61
2021/05/16 10:58:34;;;;;;;4.15;2.63;;;;;;;;;;5072319;28;20079;-62
2021/05/16 11:01:19;;;;;;;3.25;2.38;;;;;;;;;;5072144;28;20486;-61
2021/05/16 11:04:05;;;;;;;9.13;3.30;;;;;;;;;;5072386;28;20044;-61
2021/05/16 11:06:51;;;;;;;5.07;2.03;;;;;;;;;;5063282;28;20520;-61
2021/05/16 11:09:36;;;;;;;7.40;2.33;;;;;;;;;;5052280;28;20120;-61
2021/05/16 11:12:22;;;;;;;8.93;2.72;;;;;;;;;;5052407;28;20048;-61
2021/05/16 11:15:07;;;;;;;4.43;1.73;;;;;;;;;;5037125;28;20407;-62
2021/05/16 11:17:52;;;;;;;3.00;0.75;;;;;;;;;;5053386;28;20037;-60
2021/05/16 11:20:38;;;;;;;1.90;0.90;;;;;;;;;;5051888;28;20045;-61
2021/05/16 11:23:23;;;;;;;3.10;1.25;;;;;;;;;;5037044;28;20049;-61
2021/05/16 11:26:10;;;;;;;2.85;0.90;;;;;;;;;;5051987;28;20048;-60
2021/05/16 11:28:56;;;;;;;2.55;1.20;;;;;;;;;;5071343;28;20040;-61
2021/05/16 11:31:41;;;;;;;4.70;1.27;;;;;;;;;;5071679;28;20045;-61
2021/05/16 11:34:26;;;;;;;3.25;0.82;;;;;;;;;;5057537;28;20052;-61
2021/05/16 11:37:15;;;;;;;3.15;0.70;;;;;;;;;;5054310;28;20483;-62
2021/05/16 11:40:16;;;;;;;1.98;0.80;;;;;;;;;;5051926;28;20053;-61
2021/05/16 11:43:03;;;;;;;5.57;1.48;;;;;;;;;;5052034;28;20041;-62
2021/05/16 11:45:48;;;;;;;3.28;0.77;;;;;;;;;;5053005;28;20407;-63
2021/05/16 11:48:42;;;;;;;2.75;1.00;;;;;;;;;;5073553;23;20102;-63
2021/05/16 11:51:27;;;;;;;2.78;0.95;;;;;;;;;;5066129;28;20049;-64
2021/05/16 11:54:12;;;;;;;4.00;1.20;;;;;;;;;;5051736;28;20049;-64
2021/05/16 11:56:58;;;;;;;3.28;1.17;;;;;;;;;;5052870;28;20045;-64
2021/05/16 11:59:43;;;;;;;3.90;1.30;;;;;;;;;;5026554;28;20094;-64
2021/05/16 12:02:28;;;;;;;6.00;1.30;;;;;;;;;;5035441;28;20048;-64
2021/05/16 12:05:25;;;;;;;2.78;0.90;;;;;;;;;;5030559;28;20046;-64
2021/05/16 12:08:24;;;;;;;3.53;1.00;;;;;;;;;;5031949;28;20494;-64
2021/05/16 12:11:15;;;;;;;6.50;1.40;;;;;;;;;;5049364;28;20049;-64
2021/05/16 12:14:06;;;;;;;6.10;1.65;;;;;;;;;;5051530;28;20049;-64
2021/05/16 12:17:01;;;;;;;4.00;0.90;;;;;;;;;;5049584;28;20487;-64
2021/05/16 12:19:46;;;;;;;5.30;0.98;;;;;;;;;;5051204;28;20044;-64
2021/05/16 12:22:35;;;;;;;4.25;1.35;;;;;;;;;;5040891;28;20045;-64
2021/05/16 12:25:20;;;;;;;5.35;1.25;;;;;;;;;;5016925;28;20053;-64
2021/05/16 12:28:05;;;;;;;2.70;0.60;;;;;;;;;;5039577;28;20048;-65
2021/05/16 12:30:51;;;;;;;3.15;0.82;;;;;;;;;;5036400;28;20143;-65
2021/05/16 12:33:38;;;;;;;4.60;1.20;;;;;;;;;;5036703;28;20049;-65
2021/05/16 12:36:23;;;;;;;5.22;1.58;;;;;;;;;;5036240;28;20041;-65
2021/05/16 12:39:08;;;;;;;2.72;1.05;;;;;;;;;;5049563;28;20099;-65
2021/05/16 12:41:55;;;;;;;4.05;1.00;;;;;;;;;;5052512;28;20491;-65
2021/05/16 12:44:40;;;;;;;2.83;1.00;;;;;;;;;;5040147;28;20104;-65
2021/05/16 12:47:26;;;;;;;4.55;1.05;;;;;;;;;;5039981;28;20045;-65
2021/05/16 12:50:12;;;;;;;4.53;1.20;;;;;;;;;;5034729;28;20046;-65
2021/05/16 12:53:19;;;;;;;3.85;1.13;;;;;;;;;;5034748;28;20492;-64
2021/05/16 12:56:14;;;;;;;3.80;1.33;;;;;;;;;;5034620;28;20491;-65
2021/05/16 12:59:03;;;;;;;3.65;1.58;;;;;;;;;;5041784;28;20047;-65
2021/05/16 13:01:48;;;;;;;6.00;2.00;;;;;;;;;;5054375;28;20041;-65
2021/05/16 13:04:34;;;;;;;4.18;1.45;;;;;;;;;;5039582;28;20499;-65
2021/05/16 13:07:38;;;;;;;5.35;1.55;;;;;;;;;;5039688;28;20053;-65
2021/05/16 13:10:39;;;;;;;4.78;1.40;;;;;;;;;;5038189;28;20049;-65
2021/05/16 13:13:31;;;;;;;5.47;1.67;;;;;;;;;;5034518;28;20054;-65
2021/05/16 13:16:17;;;;;;;5.35;1.92;;;;;;;;;;5034484;28;20045;-65
2021/05/16 13:19:02;;;;;;;4.40;1.50;;;;;;;;;;5034674;28;20045;-65
2021/05/16 13:21:47;;;;;;;4.53;1.65;;;;;;;;;;5034223;28;20410;-65
2021/05/16 13:24:48;;;;;;;4.15;1.40;;;;;;;;;;5034260;28;20151;-65
2021/05/16 13:27:33;;;;;;;6.47;1.55;;;;;;;;;;5034317;28;20049;-65
2021/05/16 13:30:19;;;;;;;6.97;1.33;;;;;;;;;;5029906;28;20418;-65
2021/05/16 13:33:11;;;;;;;5.93;1.45;;;;;;;;;;5054213;28;20059;-65
2021/05/16 13:35:56;;;;;;;3.53;1.33;;;;;;;;;;5053928;28;20171;-65
2021/05/16 13:38:41;;;;;;;3.03;1.05;;;;;;;;;;5053825;28;20041;-64
2021/05/16 13:41:27;;;;;;;5.05;1.77;;;;;;;;;;5037558;28;20069;-64
2021/05/16 13:44:13;;;;;;;4.20;1.38;;;;;;;;;;5033988;28;20042;-64
2021/05/16 13:46:59;;;;;;;4.85;1.40;;;;;;;;;;5033916;28;20049;-65
2021/05/16 13:49:44;;;;;;;3.58;1.40;;;;;;;;;;5018529;28;20049;-64
2021/05/16 13:52:30;;;;;;;3.92;1.13;;;;;;;;;;5046815;28;20417;-64
2021/05/16 13:55:15;;;;;;;4.03;1.40;;;;;;;;;;5046442;28;20495;-64
2021/05/16 13:58:02;;;;;;;3.97;1.48;;;;;;;;;;5037575;28;20052;-64
2021/05/16 14:00:47;;;;;;;4.53;1.38;;;;;;;;;;5053090;28;20525;-64
2021/05/16 14:03:33;;;;;;;4.47;1.40;;;;;;;;;;5036671;28;20045;-65
2021/05/16 14:06:19;;;;;;;3.60;1.20;;;;;;;;;;5018323;28;20085;-65
2021/05/16 14:09:05;;;;;;;5.13;1.60;;;;;;;;;;5052069;28;20049;-65
2021/05/16 14:11:50;;;;;;;4.15;1.83;;;;;;;;;;5053075;28;20402;-65
2021/05/16 14:14:35;;;;;;;6.72;2.00;;;;;;;;;;5037102;28;20044;-65
2021/05/16 14:17:20;;;;;;;3.50;1.92;;;;;;;;;;5033262;28;20049;-65
2021/05/16 14:20:07;;;;;;;5.68;1.80;;;;;;;;;;5041014;28;20037;-65
2021/05/16 14:22:52;;;;;;;5.45;1.88;;;;;;;;;;5052573;28;20442;-65
2021/05/16 14:25:38;;;;;;;4.53;1.80;;;;;;;;;;5043060;28;20124;-65
2021/05/16 14:28:23;;;;;;;3.95;1.95;;;;;;;;;;5033017;28;20049;-65
2021/05/16 14:31:08;;;;;;;8.52;1.85;;;;;;;;;;5036670;28;20160;-64
2021/05/16 14:33:55;;;;;;;4.40;1.90;;;;;;;;;;5052912;28;20049;-65
2021/05/16 14:36:40;;;;;;;4.43;1.58;;;;;;;;;;5037011;28;20045;-65
2021/05/16 14:39:25;;;;;;;3.45;1.60;;;;;;;;;;5032581;28;20533;-65
2021/05/16 14:42:11;;;;;;;5.90;1.70;;;;;;;;;;5032943;28;20093;-65
2021/05/16 14:44:56;;;;;;;4.63;1.65;;;;;;;;;;5032933;28;20092;-64
2021/05/16 14:47:42;;;;;;;5.82;1.85;;;;;;;;;;5051457;28;20191;-65
2021/05/16 14:50:50;;;;;;;5.72;1.77;;;;;;;;;;5051701;28;20527;-65
2021/05/16 14:53:35;;;;;;;6.35;1.65;;;;;;;;;;5052418;28;20037;-65
2021/05/16 14:56:21;;;;;;;4.47;1.70;;;;;;;;;;5045211;28;20121;-65
2021/05/16 14:59:07;;;;;;;6.85;1.00;;;;;;;;;;5032610;28;20491;-65
2021/05/16 15:01:51;;;;;;;8.10;1.70;;;;;;;;;;5032456;28;20069;-65
2021/05/16 15:04:37;;;;;;;4.75;1.30;;;;;;;;;;5032119;28;20045;-65
2021/05/16 15:07:24;;;;;;;5.13;1.20;;;;;;;;;;5036663;28;20053;-65
2021/05/16 15:10:09;;;;;;;7.50;1.15;;;;;;;;;;5052060;28;20045;-65
2021/05/16 15:12:55;;;;;;;6.82;1.52;;;;;;;;;;5052149;28;20068;-65
2021/05/16 15:15:40;;;;;;;5.32;1.30;;;;;;;;;;5052263;28;20088;-65
2021/05/16 15:18:28;;;;;;;8.80;1.70;;;;;;;;;;5033500;28;20045;-65
2021/05/16 15:21:13;;;;;;;7.35;1.50;;;;;;;;;;5032155;28;20057;-65
2021/05/16 15:23:58;;;;;;;4.95;1.40;;;;;;;;;;5032152;28;20087;-65
2021/05/16 15:26:44;;;;;;;4.13;1.17;;;;;;;;;;5033470;28;20053;-64
2021/05/16 15:29:29;;;;;;;7.47;1.90;;;;;;;;;;5051768;28;20045;-65
2021/05/16 15:32:14;;;;;;;7.28;1.80;;;;;;;;;;5050504;28;20045;-65
2021/05/16 15:35:01;;;;;;;8.63;1.88;;;;;;;;;;5051939;28;20196;-65
2021/05/16 15:37:47;;;;;;;8.57;2.28;;;;;;;;;;5044184;28;20049;-65
2021/05/16 15:40:33;;;;;;;7.28;1.65;;;;;;;;;;5031740;28;20046;-65
2021/05/16 15:43:18;;;;;;;7.70;2.08;;;;;;;;;;5031925;28;20092;-65
2021/05/16 15:46:04;;;;;;;10.68;2.35;;;;;;;;;;5032575;28;20049;-65
2021/05/16 15:48:49;;;;;;;3.92;1.27;;;;;;;;;;5041160;28;20053;-65
2021/05/16 15:51:34;;;;;;;7.22;1.35;;;;;;;;;;5038618;28;20048;-65
2021/05/16 15:54:19;;;;;;;5.10;1.00;;;;;;;;;;5047770;28;20033;-64
2021/05/16 15:57:05;;;;;;;3.95;1.05;;;;;;;;;;5031823;28;20041;-65
2021/05/16 15:59:51;;;;;;;4.72;1.38;;;;;;;;;;5048432;28;20079;-65
2021/05/16 16:02:36;;;;;;;3.30;1.10;;;;;;;;;;5047138;28;20124;-65
2021/05/16 16:05:22;;;;;;;7.45;1.58;;;;;;;;;;5031920;28;20049;-65
2021/05/16 16:08:07;;;;;;;6.35;1.58;;;;;;;;;;5031865;28;20053;-65
2021/05/16 16:10:52;;;;;;;7.05;1.90;;;;;;;;;;5032388;28;20053;-65
2021/05/16 16:13:38;;;;;;;7.13;1.85;;;;;;;;;;5031831;28;20170;-65
2021/05/16 16:16:23;;;;;;;6.20;1.33;;;;;;;;;;5032533;28;20124;-65
2021/05/16 16:19:08;;;;;;;5.13;1.58;;;;;;;;;;5035304;28;20045;-65
2021/05/16 16:21:55;;;;;;;6.10;2.10;;;;;;;;;;5050895;28;20542;-64
2021/05/16 16:24:40;;;;;;;5.07;1.40;;;;;;;;;;5055352;28;20123;-64